Time;durP1;ratioP1;P1;durP2;ratioP2;P2;SDS_P1;SDS_P2;PMS_P1;PMS_P2;Temp;Humidity;BMP_temperature;BMP_pressure;BME280_temperature;BME280_humidity;BME280_pressure;Samples;Min_cycle;Max_cycle;Signal;HPM_P1;HPM_P2
2023/12/01 00:02:21;;;;;;;56.58;22.05;;;1.90;99.90;;;;;;4994169;28;20376;-78
2023/12/01 00:04:47;;;;;;;52.70;21.98;;;2.00;99.90;;;;;;4978675;28;20030;-76
2023/12/01 00:07:13;;;;;;;58.35;22.60;;;2.00;99.90;;;;;;4996103;28;20072;-75
2023/12/01 00:09:38;;;;;;;62.05;23.35;;;2.00;99.90;;;;;;4995940;28;20026;-75
2023/12/01 00:12:04;;;;;;;58.58;23.02;;;1.90;99.90;;;;;;4994431;28;20536;-75
2023/12/01 00:14:30;;;;;;;62.80;23.50;;;1.80;99.90;;;;;;4994082;28;20031;-77
2023/12/01 00:16:55;;;;;;;66.38;24.70;;;1.70;99.90;;;;;;4994310;28;20153;-77
2023/12/01 00:19:21;;;;;;;63.92;23.52;;;1.60;99.90;;;;;;4977846;28;20109;-76
2023/12/01 00:21:47;;;;;;;78.38;27.02;;;1.70;99.90;;;;;;4994289;28;20085;-75
2023/12/01 00:24:12;;;;;;;72.97;26.27;;;1.60;99.90;;;;;;4995339;28;20093;-75
2023/12/01 00:26:38;;;;;;;73.88;25.98;;;1.60;99.90;;;;;;4994123;28;20521;-77
2023/12/01 00:29:04;;;;;;;76.38;26.73;;;1.80;99.90;;;;;;5010010;28;20054;-75
2023/12/01 00:31:29;;;;;;;80.50;28.30;;;2.00;99.90;;;;;;4995002;28;20034;-75
2023/12/01 00:33:55;;;;;;;73.00;26.30;;;2.00;99.90;;;;;;4993501;28;20037;-77
2023/12/01 00:36:20;;;;;;;66.95;25.00;;;2.10;99.90;;;;;;4994852;28;20034;-77
2023/12/01 00:38:46;;;;;;;72.85;27.77;;;2.30;99.90;;;;;;4993821;28;20486;-77
2023/12/01 00:41:12;;;;;;;75.60;28.65;;;2.50;99.90;;;;;;4995290;28;20477;-76
2023/12/01 00:43:37;;;;;;;79.10;27.73;;;2.50;99.90;;;;;;4993519;28;20041;-77
2023/12/01 00:46:04;;;;;;;86.60;30.35;;;2.60;99.90;;;;;;4995180;28;20525;-76
2023/12/01 00:48:30;;;;;;;74.50;28.05;;;2.50;99.90;;;;;;4993226;28;20022;-76
2023/12/01 00:50:56;;;;;;;87.95;31.98;;;2.50;99.90;;;;;;4994011;28;20031;-76
2023/12/01 00:53:22;;;;;;;88.80;30.20;;;2.50;99.90;;;;;;4993616;28;20077;-77
2023/12/01 00:55:48;;;;;;;85.80;30.77;;;2.40;99.90;;;;;;4993625;28;20034;-77
2023/12/01 00:58:13;;;;;;;82.65;29.27;;;2.40;99.90;;;;;;4977280;28;20133;-76
2023/12/01 01:00:40;;;;;;;82.80;28.52;;;2.50;99.90;;;;;;4994641;28;20027;-77
2023/12/01 01:03:06;;;;;;;79.22;29.00;;;2.40;99.90;;;;;;4978129;28;20037;-77
2023/12/01 01:05:32;;;;;;;83.28;29.70;;;2.40;99.90;;;;;;4994575;28;20084;-77
2023/12/01 01:07:58;;;;;;;84.78;27.80;;;2.50;99.90;;;;;;4994963;28;20034;-77
2023/12/01 01:10:24;;;;;;;83.03;29.17;;;2.40;99.90;;;;;;4993417;28;20101;-76
2023/12/01 01:12:50;;;;;;;83.88;27.98;;;2.30;99.90;;;;;;4994547;28;20025;-76
2023/12/01 01:15:16;;;;;;;84.53;28.95;;;2.30;99.90;;;;;;4993065;28;20458;-77
2023/12/01 01:17:42;;;;;;;86.55;30.50;;;2.30;99.90;;;;;;4992937;28;20070;-77
2023/12/01 01:20:09;;;;;;;101.13;32.22;;;2.30;99.90;;;;;;4992881;28;20058;-77
2023/12/01 01:22:35;;;;;;;94.18;29.92;;;2.30;99.90;;;;;;4994428;28;20430;-77
2023/12/01 01:25:01;;;;;;;98.07;30.70;;;2.20;99.90;;;;;;4992844;28;20065;-77
2023/12/01 01:27:26;;;;;;;101.38;32.65;;;2.20;99.90;;;;;;4994400;28;20057;-78
2023/12/01 01:29:52;;;;;;;97.57;32.03;;;2.40;99.90;;;;;;4976903;28;20034;-76
2023/12/01 01:32:18;;;;;;;99.57;32.00;;;2.30;99.90;;;;;;4993928;28;20035;-76
2023/12/01 01:34:44;;;;;;;106.57;34.35;;;2.30;99.90;;;;;;4994308;28;20030;-77
2023/12/01 01:37:10;;;;;;;101.88;32.65;;;2.20;99.90;;;;;;4994487;28;20418;-77
2023/12/01 01:39:35;;;;;;;106.43;34.30;;;2.20;99.90;;;;;;4992925;28;20026;-76
2023/12/01 01:42:01;;;;;;;114.95;36.60;;;2.30;99.90;;;;;;4993563;28;20037;-76
2023/12/01 01:44:27;;;;;;;117.07;36.53;;;2.40;99.90;;;;;;4993864;28;20037;-75
2023/12/01 01:46:54;;;;;;;105.47;35.58;;;2.50;99.90;;;;;;4977453;28;20030;-76
2023/12/01 01:49:26;;;;;;;106.43;35.80;;;2.50;99.90;;;;;;4993852;28;20027;-77
2023/12/01 01:51:56;;;;;;;112.35;36.10;;;2.40;99.90;;;;;;4993644;28;20050;-76
2023/12/01 01:54:25;;;;;;;104.05;35.42;;;2.50;99.90;;;;;;4994642;28;20030;-76
2023/12/01 01:56:52;;;;;;;106.10;35.75;;;2.50;99.90;;;;;;4994533;28;20073;-76
2023/12/01 01:59:22;;;;;;;109.30;37.20;;;2.50;99.90;;;;;;4994024;28;20026;-76
2023/12/01 02:01:48;;;;;;;108.50;36.78;;;2.40;99.90;;;;;;4997003;28;20039;-76
2023/12/01 02:04:14;;;;;;;112.00;37.17;;;2.40;99.90;;;;;;4996612;28;20052;-75
2023/12/01 02:06:41;;;;;;;116.15;37.53;;;2.30;99.90;;;;;;4996366;28;20041;-76
2023/12/01 02:09:07;;;;;;;112.03;38.95;;;2.20;99.90;;;;;;4997722;28;20113;-76
2023/12/01 02:11:33;;;;;;;103.38;35.85;;;2.20;99.90;;;;;;4997392;28;20100;-76
2023/12/01 02:14:00;;;;;;;105.15;36.03;;;2.40;99.90;;;;;;4997957;28;20109;-77
2023/12/01 02:16:26;;;;;;;107.50;36.78;;;2.40;99.90;;;;;;4997693;28;20102;-77
2023/12/01 02:18:55;;;;;;;108.32;36.85;;;2.50;99.90;;;;;;4999319;28;20022;-76
2023/12/01 02:21:25;;;;;;;107.72;37.47;;;2.50;99.90;;;;;;5017110;28;20026;-76
2023/12/01 02:23:55;;;;;;;108.95;38.25;;;2.60;99.90;;;;;;5000047;28;20095;-78
2023/12/01 02:26:23;;;;;;;97.82;33.63;;;2.60;99.90;;;;;;5016742;28;20037;-76
2023/12/01 02:28:49;;;;;;;99.03;33.80;;;2.80;99.90;;;;;;5015714;28;20460;-77
2023/12/01 02:31:15;;;;;;;104.20;36.60;;;2.90;99.90;;;;;;5016945;28;20129;-77
2023/12/01 02:33:41;;;;;;;95.90;37.05;;;2.90;99.90;;;;;;4999602;28;20041;-75
2023/12/01 02:36:08;;;;;;;102.53;37.40;;;3.00;99.90;;;;;;5017197;28;20030;-77
2023/12/01 02:38:34;;;;;;;91.18;35.17;;;3.00;99.90;;;;;;5031888;28;20034;-78
2023/12/01 02:41:02;;;;;;;91.90;35.50;;;3.10;99.90;;;;;;5016811;28;20030;-79
2023/12/01 02:43:28;;;;;;;92.95;35.35;;;3.20;99.90;;;;;;5016778;28;20026;-78
2023/12/01 02:45:54;;;;;;;92.15;34.10;;;3.30;99.90;;;;;;5016541;28;20117;-79
2023/12/01 02:48:20;;;;;;;90.45;33.78;;;3.30;99.90;;;;;;5016388;28;20076;-78
2023/12/01 02:50:45;;;;;;;79.95;32.25;;;3.40;99.90;;;;;;4998837;28;20038;-78
2023/12/01 02:53:11;;;;;;;86.65;34.80;;;3.50;99.90;;;;;;5016873;28;20097;-77
2023/12/01 02:55:37;;;;;;;83.10;34.63;;;3.50;99.90;;;;;;4999275;28;20125;-77
2023/12/01 02:58:03;;;;;;;85.00;33.95;;;3.50;99.90;;;;;;4998586;28;20393;-78
2023/12/01 03:00:29;;;;;;;83.35;32.53;;;3.60;99.90;;;;;;5016506;28;20029;-78
2023/12/01 03:02:55;;;;;;;82.90;34.90;;;3.70;99.90;;;;;;5031622;28;20026;-78
2023/12/01 03:05:21;;;;;;;83.28;33.00;;;3.80;99.90;;;;;;5016105;28;20033;-77
2023/12/01 03:07:47;;;;;;;83.43;33.65;;;3.80;99.90;;;;;;5031639;28;20076;-77
2023/12/01 03:10:14;;;;;;;81.22;32.20;;;3.90;99.90;;;;;;4999371;28;20034;-78
2023/12/01 03:12:41;;;;;;;79.22;32.72;;;3.80;99.90;;;;;;4997953;28;20034;-77
2023/12/01 03:15:10;;;;;;;80.95;34.13;;;3.90;99.90;;;;;;5015809;28;20425;-76
2023/12/01 03:17:37;;;;;;;76.15;33.20;;;4.00;99.90;;;;;;4999048;28;20454;-76
2023/12/01 03:20:14;;;;;;;83.03;33.95;;;4.00;99.90;;;;;;4998128;28;20065;-76
2023/12/01 03:22:42;;;;;;;79.20;33.35;;;4.00;99.90;;;;;;5016051;28;20022;-76
2023/12/01 03:25:11;;;;;;;70.07;30.48;;;3.90;99.90;;;;;;4998014;28;20022;-75
2023/12/01 03:27:42;;;;;;;81.07;31.33;;;3.90;99.90;;;;;;5015948;28;20347;-76
2023/12/01 03:30:16;;;;;;;77.68;32.17;;;3.80;99.90;;;;;;4998394;28;20092;-75
2023/12/01 03:32:46;;;;;;;77.13;32.35;;;3.80;99.90;;;;;;5030774;28;20034;-75
2023/12/01 03:35:16;;;;;;;72.30;31.25;;;3.80;99.90;;;;;;5015546;28;20394;-75
2023/12/01 03:37:43;;;;;;;72.30;31.10;;;3.60;99.90;;;;;;5015743;28;20022;-75
2023/12/01 03:40:12;;;;;;;73.63;30.83;;;3.70;99.90;;;;;;4997835;28;20034;-76
2023/12/01 03:42:41;;;;;;;73.75;30.25;;;3.70;99.90;;;;;;5015627;28;20038;-77
2023/12/01 03:45:07;;;;;;;72.28;29.88;;;3.60;99.90;;;;;;5016078;28;20029;-77
2023/12/01 03:47:35;;;;;;;75.13;31.17;;;3.60;99.90;;;;;;5015501;28;20046;-83
2023/12/01 03:50:02;;;;;;;72.63;31.42;;;3.60;99.90;;;;;;5014945;28;20030;-83
2023/12/01 03:52:28;;;;;;;74.65;29.67;;;3.40;99.90;;;;;;5014924;28;20141;-83
2023/12/01 03:54:53;;;;;;;70.72;29.40;;;3.50;99.90;;;;;;5029838;28;20137;-83
2023/12/01 03:57:19;;;;;;;68.63;29.88;;;3.50;99.90;;;;;;5032074;28;20101;-84
2023/12/01 03:59:45;;;;;;;72.28;30.70;;;3.60;99.90;;;;;;5016902;28;20530;-84
2023/12/01 04:02:11;;;;;;;72.00;30.65;;;3.70;99.90;;;;;;5017458;28;20018;-86
2023/12/01 04:04:38;;;;;;;66.65;29.38;;;3.60;99.90;;;;;;5014216;28;20534;-85
2023/12/01 04:07:07;;;;;;;72.03;29.90;;;3.70;99.90;;;;;;5014814;28;20114;-85
2023/12/01 04:09:34;;;;;;;71.75;30.73;;;3.80;99.90;;;;;;5030414;28;20482;-84
2023/12/01 04:12:00;;;;;;;71.80;30.55;;;3.70;99.90;;;;;;5014664;28;20410;-84
2023/12/01 04:14:27;;;;;;;71.40;30.20;;;3.60;99.90;;;;;;4997064;28;20116;-83
2023/12/01 04:16:52;;;;;;;73.47;30.25;;;3.50;99.90;;;;;;4996478;28;20050;-82
2023/12/01 04:19:18;;;;;;;75.78;30.15;;;3.40;99.90;;;;;;5029536;28;20084;-81
2023/12/01 04:21:44;;;;;;;72.80;30.45;;;3.40;99.90;;;;;;5029635;28;20092;-80
2023/12/01 04:24:09;;;;;;;68.13;29.77;;;3.30;99.90;;;;;;5011855;28;20124;-83
2023/12/01 04:26:35;;;;;;;73.55;30.30;;;3.40;99.90;;;;;;5014397;28;20104;-82
2023/12/01 04:29:01;;;;;;;73.97;30.90;;;3.50;99.90;;;;;;5029052;28;20113;-83
2023/12/01 04:31:27;;;;;;;69.90;28.92;;;3.50;99.90;;;;;;5013819;28;20584;-82
2023/12/01 04:33:52;;;;;;;73.05;30.80;;;3.60;99.90;;;;;;5029225;28;20038;-84
2023/12/01 04:36:18;;;;;;;72.80;30.42;;;3.60;99.90;;;;;;5029146;28;20588;-83
2023/12/01 04:38:44;;;;;;;71.00;31.08;;;3.60;99.90;;;;;;5012927;28;20049;-82
2023/12/01 04:41:10;;;;;;;80.80;33.80;;;3.70;99.90;;;;;;5014493;28;20037;-83
2023/12/01 04:43:38;;;;;;;74.55;31.63;;;3.70;99.90;;;;;;5029421;28;20109;-82
2023/12/01 04:46:04;;;;;;;75.05;31.10;;;3.80;99.90;;;;;;5012541;28;20030;-83
2023/12/01 04:48:29;;;;;;;76.15;31.42;;;3.80;99.90;;;;;;5013355;28;20036;-80
2023/12/01 04:50:56;;;;;;;76.35;30.90;;;3.90;99.90;;;;;;5014501;28;20034;-83
2023/12/01 04:53:22;;;;;;;77.10;32.47;;;4.00;99.90;;;;;;5014834;28;20366;-83
2023/12/01 04:55:47;;;;;;;73.53;32.58;;;4.00;99.90;;;;;;5018059;28;20030;-83
2023/12/01 04:58:13;;;;;;;74.47;32.65;;;4.00;99.90;;;;;;5013709;28;20029;-83
2023/12/01 05:00:39;;;;;;;77.47;34.17;;;4.00;99.90;;;;;;5029720;28;20034;-82
2023/12/01 05:03:06;;;;;;;73.15;30.55;;;4.00;99.90;;;;;;4996395;28;20064;-83
2023/12/01 05:05:36;;;;;;;68.88;30.92;;;4.00;99.90;;;;;;5014057;28;20063;-84
2023/12/01 05:08:05;;;;;;;76.82;33.10;;;4.00;99.90;;;;;;5013944;28;20079;-82
2023/12/01 05:10:32;;;;;;;80.57;34.50;;;3.90;99.90;;;;;;4996161;28;20033;-83
2023/12/01 05:13:04;;;;;;;80.00;34.03;;;4.00;99.90;;;;;;5013818;28;20064;-83
2023/12/01 05:15:31;;;;;;;78.95;34.28;;;4.00;99.90;;;;;;5013673;28;20037;-85
2023/12/01 05:18:07;;;;;;;77.80;32.55;;;4.00;99.90;;;;;;5013746;28;20025;-80
2023/12/01 05:20:33;;;;;;;78.70;34.10;;;4.00;99.90;;;;;;5015127;28;20085;-84
2023/12/01 05:23:02;;;;;;;82.38;34.65;;;4.00;99.90;;;;;;5028644;28;20026;-81
2023/12/01 05:25:32;;;;;;;71.70;33.00;;;4.00;99.90;;;;;;5013836;28;20033;-84
2023/12/01 05:27:59;;;;;;;74.07;31.52;;;4.00;99.90;;;;;;5016419;28;20026;-81
2023/12/01 05:30:27;;;;;;;75.50;32.00;;;4.10;99.90;;;;;;5014462;28;20105;-81
2023/12/01 05:32:54;;;;;;;69.32;32.03;;;4.10;99.90;;;;;;5014465;28;20108;-82
2023/12/01 05:35:20;;;;;;;76.20;32.90;;;4.00;99.90;;;;;;4999486;28;20171;-83
2023/12/01 05:37:51;;;;;;;73.53;30.70;;;4.10;99.90;;;;;;5037655;28;20136;-83
2023/12/01 05:40:21;;;;;;;72.20;31.02;;;4.10;99.90;;;;;;5004326;28;20425;-81
2023/12/01 05:42:49;;;;;;;74.18;32.22;;;4.20;99.90;;;;;;5023463;28;20112;-83
2023/12/01 05:45:16;;;;;;;79.88;33.70;;;4.20;99.90;;;;;;5020428;28;20061;-84
2023/12/01 05:47:42;;;;;;;82.30;35.75;;;4.10;99.90;;;;;;5020244;28;20053;-81
2023/12/01 05:50:15;;;;;;;74.22;32.67;;;4.00;99.90;;;;;;5035002;28;20080;-83
2023/12/01 05:52:42;;;;;;;;;;;4.00;99.90;;;;;;5020598;28;20175;-84
2023/12/01 05:55:14;;;;;;;81.15;33.83;;;4.00;99.90;;;;;;5018100;28;19917;-83
2023/12/01 05:57:49;;;;;;;81.85;36.58;;;4.00;99.90;;;;;;5020061;28;20435;-84
2023/12/01 06:00:17;;;;;;;85.75;35.90;;;4.00;99.90;;;;;;5020190;28;20042;-84
2023/12/01 06:02:44;;;;;;;75.38;33.97;;;3.90;99.90;;;;;;5020416;28;20037;-81
2023/12/01 06:05:13;;;;;;;80.88;34.60;;;3.90;99.90;;;;;;5019575;28;20065;-81
2023/12/01 06:07:45;;;;;;;68.57;30.75;;;3.80;99.90;;;;;;5034357;28;20470;-83
2023/12/01 06:10:11;;;;;;;54.97;24.73;;;3.80;99.90;;;;;;5018069;28;20045;-85
2023/12/01 06:12:38;;;;;;;47.63;22.33;;;3.70;99.90;;;;;;5035226;28;20049;-83
2023/12/01 06:15:05;;;;;;;51.47;22.75;;;3.60;99.90;;;;;;5019841;28;20040;-80
2023/12/01 06:17:31;;;;;;;44.70;21.63;;;3.60;99.90;;;;;;5002647;28;20034;-82
2023/12/01 06:19:57;;;;;;;42.42;20.50;;;3.60;99.90;;;;;;5019387;28;20076;-83
2023/12/01 06:22:23;;;;;;;40.67;18.77;;;3.60;99.90;;;;;;5035151;28;20037;-80
2023/12/01 06:24:49;;;;;;;41.10;18.50;;;3.60;99.90;;;;;;5019802;28;20458;-84
2023/12/01 06:27:15;;;;;;;42.47;18.85;;;3.60;99.90;;;;;;5018700;28;20417;-85
2023/12/01 06:29:40;;;;;;;40.65;17.77;;;3.60;99.90;;;;;;5020389;28;20034;-83
2023/12/01 06:32:06;;;;;;;40.78;18.58;;;3.60;99.90;;;;;;5019653;28;20038;-82
2023/12/01 06:34:33;;;;;;;37.50;18.00;;;3.70;99.90;;;;;;5020502;28;20030;-84
2023/12/01 06:36:59;;;;;;;37.92;17.83;;;3.70;99.90;;;;;;5035146;28;20106;-84
2023/12/01 06:39:28;;;;;;;35.97;17.17;;;3.70;99.90;;;;;;5019861;28;20038;-84
2023/12/01 06:41:54;;;;;;;41.30;18.27;;;3.60;99.90;;;;;;5021403;28;20034;-85
2023/12/01 06:44:20;;;;;;;42.00;18.23;;;3.60;99.90;;;;;;5002325;28;20030;-83
2023/12/01 06:46:46;;;;;;;40.88;18.17;;;3.50;99.90;;;;;;5000597;28;20030;-84
2023/12/01 06:49:11;;;;;;;38.22;17.83;;;3.40;99.90;;;;;;5017766;28;20037;-84
2023/12/01 06:51:37;;;;;;;40.47;18.52;;;3.30;99.90;;;;;;5000963;28;20034;-82
2023/12/01 06:54:03;;;;;;;43.40;18.92;;;3.30;99.90;;;;;;5031398;28;20030;-83
2023/12/01 06:56:28;;;;;;;40.75;17.83;;;3.20;99.90;;;;;;5015177;28;20430;-82
2023/12/01 06:58:55;;;;;;;41.60;18.52;;;3.20;99.90;;;;;;5016681;28;20084;-85
2023/12/01 07:01:21;;;;;;;45.13;18.90;;;3.10;99.90;;;;;;5031222;28;20458;-81
2023/12/01 07:03:47;;;;;;;44.78;18.80;;;3.10;99.90;;;;;;5015781;28;20032;-81
2023/12/01 07:06:14;;;;;;;42.25;19.38;;;2.90;99.90;;;;;;5014635;28;20541;-82
2023/12/01 07:08:40;;;;;;;39.33;18.10;;;3.00;99.90;;;;;;5030851;28;20030;-81
2023/12/01 07:11:07;;;;;;;39.42;17.92;;;2.90;99.90;;;;;;5015630;28;20038;-81
2023/12/01 07:13:33;;;;;;;40.80;17.50;;;2.80;99.90;;;;;;5015628;28;20458;-82
2023/12/01 07:15:58;;;;;;;38.53;16.63;;;2.70;99.90;;;;;;4998990;28;20025;-82
2023/12/01 07:18:24;;;;;;;40.45;16.48;;;2.70;99.90;;;;;;4998233;28;20037;-82
2023/12/01 07:20:50;;;;;;;38.88;16.92;;;2.80;99.90;;;;;;5031118;28;20069;-82
2023/12/01 07:23:17;;;;;;;37.83;17.42;;;2.80;99.90;;;;;;4997510;28;20030;-78
2023/12/01 07:25:47;;;;;;;41.15;16.77;;;2.60;99.90;;;;;;5015662;28;20034;-80
2023/12/01 07:28:13;;;;;;;36.88;15.57;;;2.50;99.90;;;;;;5030228;28;20498;-77
2023/12/01 07:30:41;;;;;;;36.20;16.38;;;2.60;99.90;;;;;;5014640;28;20104;-78
2023/12/01 07:33:07;;;;;;;35.55;15.75;;;2.70;99.90;;;;;;5046665;22;20033;-75
2023/12/01 07:35:34;;;;;;;33.85;14.93;;;2.60;99.90;;;;;;5017415;28;20053;-80
2023/12/01 07:38:00;;;;;;;40.70;17.40;;;2.60;99.90;;;;;;5016807;28;20037;-79
2023/12/01 07:40:27;;;;;;;34.80;16.45;;;2.70;99.90;;;;;;5034599;28;20026;-79
2023/12/01 07:42:57;;;;;;;34.50;16.10;;;2.80;99.90;;;;;;5016793;28;20041;-80
2023/12/01 07:45:23;;;;;;;34.22;15.23;;;2.60;99.90;;;;;;5086789;22;20167;-79
2023/12/01 07:47:54;;;;;;;35.78;14.90;;;2.60;99.90;;;;;;5016980;28;20454;-82
2023/12/01 07:50:20;;;;;;;35.33;14.98;;;2.70;99.90;;;;;;5034440;28;20026;-77
2023/12/01 07:52:48;;;;;;;34.35;15.55;;;3.00;99.90;;;;;;5034233;28;20128;-77
2023/12/01 07:55:14;;;;;;;33.00;14.50;;;3.20;99.90;;;;;;5092430;22;20096;-77
2023/12/01 07:57:40;;;;;;;34.03;15.32;;;3.20;99.90;;;;;;5066140;22;20053;-71
2023/12/01 08:00:16;;;;;;;31.48;14.15;;;3.00;99.90;;;;;;5015396;28;20481;-70
2023/12/01 08:02:52;;;;;;;36.25;14.75;;;3.00;99.90;;;;;;5032480;28;20033;-69
2023/12/01 08:05:18;;;;;;;33.40;15.98;;;3.20;99.90;;;;;;5030737;28;20033;-70
2023/12/01 08:07:51;;;;;;;35.22;14.90;;;3.30;99.90;;;;;;5025235;28;20037;-71
2023/12/01 08:10:21;;;;;;;33.47;14.35;;;3.20;99.90;;;;;;5021492;28;20041;-70
2023/12/01 08:12:49;;;;;;;34.08;15.65;;;3.20;99.90;;;;;;5026360;28;20385;-70
2023/12/01 08:15:15;;;;;;;31.33;13.95;;;3.00;99.90;;;;;;5021129;28;20053;-70
2023/12/01 08:17:44;;;;;;;30.10;14.48;;;2.90;99.90;;;;;;5039635;28;20045;-70
2023/12/01 08:20:10;;;;;;;29.23;13.43;;;3.00;99.90;;;;;;5014905;28;20057;-70
2023/12/01 08:22:43;;;;;;;30.25;15.13;;;3.20;99.90;;;;;;5024459;28;20087;-69
2023/12/01 08:25:09;;;;;;;32.92;14.48;;;3.30;99.90;;;;;;5022374;28;20036;-71
2023/12/01 08:27:35;;;;;;;23.92;12.50;;;3.20;99.90;;;;;;5012937;28;20037;-71
2023/12/01 08:30:02;;;;;;;29.63;13.43;;;3.30;99.90;;;;;;5044112;28;20033;-71
2023/12/01 08:32:28;;;;;;;29.02;13.65;;;3.40;99.90;;;;;;5032076;28;20168;-71
2023/12/01 08:34:54;;;;;;;32.75;13.45;;;3.60;99.90;;;;;;5039949;28;20121;-71
2023/12/01 08:37:20;;;;;;;24.00;11.55;;;3.80;99.90;;;;;;5014571;28;20042;-72
2023/12/01 08:39:46;;;;;;;27.75;12.82;;;3.70;99.80;;;;;;5016054;28;20034;-72
2023/12/01 08:42:11;;;;;;;29.05;13.57;;;3.60;99.90;;;;;;5024448;28;20073;-72
2023/12/01 08:44:37;;;;;;;31.50;14.27;;;3.50;99.20;;;;;;5022909;28;20479;-71
2023/12/01 08:47:03;;;;;;;28.30;13.85;;;3.10;99.10;;;;;;5035963;28;20462;-71
2023/12/01 08:49:29;;;;;;;27.75;13.15;;;2.80;99.80;;;;;;5031762;28;20033;-70
2023/12/01 08:51:55;;;;;;;25.17;11.77;;;2.60;99.70;;;;;;5026008;28;20032;-71
2023/12/01 08:54:22;;;;;;;29.95;12.52;;;2.60;99.90;;;;;;5013117;28;20037;-71
2023/12/01 08:56:48;;;;;;;28.77;12.70;;;2.70;99.90;;;;;;5010903;28;20057;-72
2023/12/01 08:59:13;;;;;;;30.42;12.65;;;2.80;99.90;;;;;;5032090;28;20037;-72
2023/12/01 09:01:40;;;;;;;27.00;11.93;;;3.00;99.90;;;;;;5029947;28;20129;-72
2023/12/01 09:04:06;;;;;;;29.55;12.52;;;3.00;99.90;;;;;;5040162;28;20029;-72
2023/12/01 09:06:32;;;;;;;29.60;12.30;;;3.10;99.90;;;;;;5022002;28;20025;-72
2023/12/01 09:08:58;;;;;;;27.52;13.40;;;3.00;99.90;;;;;;5014436;28;20462;-72
2023/12/01 09:11:24;;;;;;;24.75;11.95;;;3.00;99.80;;;;;;5021471;28;20042;-72
2023/12/01 09:13:49;;;;;;;27.27;12.60;;;3.00;99.90;;;;;;5000749;28;20387;-71
2023/12/01 09:16:15;;;;;;;27.80;11.80;;;3.10;99.90;;;;;;5019931;28;20045;-71
2023/12/01 09:18:43;;;;;;;26.83;12.93;;;3.10;99.90;;;;;;5004471;28;20036;-71
2023/12/01 09:21:08;;;;;;;27.45;12.80;;;3.20;99.70;;;;;;5013888;28;20026;-72
2023/12/01 09:23:39;;;;;;;28.05;12.60;;;3.20;99.10;;;;;;5021355;28;20033;-71
2023/12/01 09:26:06;;;;;;;26.77;12.00;;;3.00;99.10;;;;;;5011691;28;20106;-72
2023/12/01 09:28:35;;;;;;;27.17;11.82;;;2.90;99.60;;;;;;5023832;28;20365;-71
2023/12/01 09:31:04;;;;;;;30.17;12.63;;;2.80;99.60;;;;;;5014366;28;20056;-72
2023/12/01 09:33:32;;;;;;;25.77;11.57;;;2.70;99.40;;;;;;5014766;28;20049;-73
2023/12/01 09:35:58;;;;;;;25.88;12.27;;;2.70;99.90;;;;;;5026574;28;20025;-72
2023/12/01 09:38:24;;;;;;;26.67;11.27;;;2.80;99.90;;;;;;5026125;28;20105;-71
2023/12/01 09:40:50;;;;;;;28.25;12.32;;;2.80;99.90;;;;;;5026962;28;20072;-71
2023/12/01 09:43:18;;;;;;;24.65;12.18;;;2.90;99.90;;;;;;5019673;28;20041;-72
2023/12/01 09:45:44;;;;;;;27.67;13.18;;;2.90;99.90;;;;;;5024236;28;20030;-72
2023/12/01 09:48:11;;;;;;;27.92;12.57;;;3.00;99.90;;;;;;5027369;28;20033;-71
2023/12/01 09:50:37;;;;;;;29.13;12.57;;;3.10;99.90;;;;;;4998150;28;20029;-72
2023/12/01 09:53:03;;;;;;;25.88;12.45;;;3.00;99.90;;;;;;5033344;28;20090;-70
2023/12/01 09:55:29;;;;;;;26.75;11.80;;;3.10;99.90;;;;;;5017034;28;20050;-72
2023/12/01 09:57:56;;;;;;;27.02;11.90;;;3.00;99.90;;;;;;5030426;28;20077;-71
2023/12/01 10:00:27;;;;;;;30.92;12.48;;;3.00;99.90;;;;;;5033150;28;20038;-70
2023/12/01 10:02:53;;;;;;;25.50;11.48;;;2.90;99.90;;;;;;5015158;28;20061;-71
2023/12/01 10:05:19;;;;;;;32.67;12.38;;;3.00;99.90;;;;;;5018157;28;20026;-71
2023/12/01 10:07:46;;;;;;;24.83;11.43;;;2.80;99.90;;;;;;5013356;28;20037;-71
2023/12/01 10:10:20;;;;;;;26.60;11.27;;;2.70;99.90;;;;;;5014449;28;20038;-71
2023/12/01 10:13:12;;;;;;;26.48;11.48;;;2.90;99.90;;;;;;5024996;28;20033;-71
2023/12/01 10:15:38;;;;;;;19.50;10.15;;;3.00;99.90;;;;;;5009467;28;20096;-71
2023/12/01 10:18:16;;;;;;;24.85;11.27;;;3.00;99.90;;;;;;5004913;28;20026;-71
2023/12/01 10:20:57;;;;;;;26.70;11.95;;;3.20;99.90;;;;;;5024610;28;20067;-71
2023/12/01 10:23:24;;;;;;;24.38;11.98;;;3.30;99.90;;;;;;5016697;28;20041;-71
2023/12/01 10:25:51;;;;;;;30.67;11.23;;;3.30;99.90;;;;;;5028302;28;20045;-71
2023/12/01 10:28:20;;;;;;;24.85;11.18;;;3.20;99.80;;;;;;5033098;28;20037;-71
2023/12/01 10:30:54;;;;;;;22.55;10.75;;;3.20;99.80;;;;;;5017536;28;20038;-71
2023/12/01 10:33:24;;;;;;;24.77;10.90;;;3.40;99.90;;;;;;5023677;28;20080;-71
2023/12/01 10:36:01;;;;;;;27.60;11.50;;;3.60;99.90;;;;;;5025995;28;20366;-73
2023/12/01 10:38:27;;;;;;;20.45;10.43;;;3.70;99.50;;;;;;5024268;28;20033;-72
2023/12/01 10:40:58;;;;;;;26.98;12.18;;;3.60;98.80;;;;;;5017291;28;20026;-72
2023/12/01 10:43:24;;;;;;;25.17;11.20;;;3.40;98.70;;;;;;5039814;28;20053;-72
2023/12/01 10:45:50;;;;;;;29.00;12.15;;;3.20;99.10;;;;;;5028209;28;20025;-71
2023/12/01 10:48:20;;;;;;;26.15;11.77;;;3.30;99.60;;;;;;5034828;28;20092;-73
2023/12/01 10:50:47;;;;;;;25.48;11.75;;;3.40;99.30;;;;;;5027762;28;20022;-73
2023/12/01 10:53:16;;;;;;;24.02;10.98;;;3.40;99.30;;;;;;5017079;28;20050;-73
2023/12/01 10:55:48;;;;;;;28.02;13.23;;;3.40;99.10;;;;;;5033947;28;20417;-73
2023/12/01 10:58:22;;;;;;;32.80;13.43;;;3.30;98.90;;;;;;5024409;28;20054;-73
2023/12/01 11:00:52;;;;;;;22.30;10.63;;;3.10;99.30;;;;;;5007019;28;20373;-73
2023/12/01 11:03:23;;;;;;;26.33;12.07;;;3.10;99.50;;;;;;5025530;28;20036;-72
2023/12/01 11:05:51;;;;;;;27.55;12.38;;;3.20;99.40;;;;;;5024585;28;20084;-71
2023/12/01 11:08:35;;;;;;;26.38;12.23;;;3.20;99.60;;;;;;5025009;28;20026;-70
2023/12/01 11:11:13;;;;;;;29.58;13.43;;;3.20;99.50;;;;;;5021068;28;20030;-71
2023/12/01 11:14:09;;;;;;;25.13;11.38;;;3.30;99.50;;;;;;5031109;28;20048;-72
2023/12/01 11:16:34;;;;;;;26.13;12.07;;;3.30;99.60;;;;;;5027191;28;20030;-71
2023/12/01 11:19:00;;;;;;;26.83;12.27;;;3.40;99.60;;;;;;5002997;28;20132;-72
2023/12/01 11:21:26;;;;;;;28.83;12.43;;;3.50;99.60;;;;;;5022317;28;20428;-72
2023/12/01 11:23:52;;;;;;;23.83;11.52;;;3.50;99.30;;;;;;4998895;28;20453;-73
2023/12/01 11:26:18;;;;;;;28.02;12.57;;;3.60;99.30;;;;;;5015148;28;20061;-73
2023/12/01 11:28:55;;;;;;;29.65;13.32;;;3.50;98.70;;;;;;5031888;28;20099;-73
2023/12/01 11:31:28;;;;;;;27.40;12.32;;;3.40;98.90;;;;;;5013002;28;20041;-78
2023/12/01 11:33:56;;;;;;;26.55;12.48;;;3.50;99.20;;;;;;5013929;28;20076;-78
2023/12/01 11:36:37;;;;;;;27.80;12.50;;;3.60;99.00;;;;;;5014729;28;20026;-79
2023/12/01 11:41:53;;;;;;;27.38;12.27;;;3.00;99.00;;;;;;5014370;28;20042;-80
2023/12/01 11:44:24;;;;;;;26.98;12.95;;;3.00;99.80;;;;;;5014504;28;20076;-81
2023/12/01 11:46:57;;;;;;;29.10;12.90;;;3.10;99.70;;;;;;5014307;28;20049;-81
2023/12/01 11:49:24;;;;;;;;;;;3.10;99.80;;;;;;5014990;28;20026;-80
2023/12/01 11:51:50;;;;;;;28.80;13.07;;;3.10;99.60;;;;;;5014310;28;20313;-78
2023/12/01 11:54:16;;;;;;;28.30;12.88;;;3.00;99.90;;;;;;5029423;28;20099;-81
2023/12/01 11:56:51;;;;;;;29.20;14.13;;;3.10;99.90;;;;;;5014238;28;20121;-82
2023/12/01 11:59:17;;;;;;;32.83;15.05;;;3.10;99.70;;;;;;4996540;28;20057;-82
2023/12/01 12:01:44;;;;;;;32.35;14.70;;;2.90;99.90;;;;;;4996808;28;20094;-80
2023/12/01 12:04:13;;;;;;;25.10;12.63;;;2.70;99.70;;;;;;5013170;28;20030;-80
2023/12/01 12:06:41;;;;;;;31.20;13.75;;;2.50;99.90;;;;;;5029010;28;20469;-79
2023/12/01 12:09:08;;;;;;;31.42;14.23;;;2.60;99.90;;;;;;5014013;28;20037;-79
2023/12/01 12:11:35;;;;;;;27.13;13.25;;;2.60;99.90;;;;;;5029623;28;20034;-78
2023/12/01 12:14:02;;;;;;;29.50;13.65;;;2.40;99.90;;;;;;5014664;28;20032;-81
2023/12/01 12:16:28;;;;;;;28.83;13.43;;;2.30;99.90;;;;;;5012449;28;20034;-77
2023/12/01 12:18:57;;;;;;;28.48;12.95;;;2.30;99.90;;;;;;5013485;28;20056;-78
2023/12/01 12:21:23;;;;;;;28.50;13.60;;;2.30;99.90;;;;;;5029033;28;20034;-77
2023/12/01 12:23:49;;;;;;;28.30;12.75;;;2.50;99.90;;;;;;5028608;28;20378;-79
2023/12/01 12:26:25;;;;;;;28.45;13.88;;;2.70;99.90;;;;;;5014037;28;20029;-75
2023/12/01 12:28:56;;;;;;;32.38;15.10;;;2.80;99.90;;;;;;5013456;22;20058;-71
2023/12/01 12:31:25;;;;;;;29.25;13.55;;;2.80;99.90;;;;;;5013598;28;20041;-74
2023/12/01 12:36:19;;;;;;;27.65;13.57;;;3.10;99.90;;;;;;4993496;28;20446;-74
2023/12/01 12:38:48;;;;;;;28.30;14.23;;;3.10;99.60;;;;;;4993231;28;20550;-74
2023/12/01 12:41:29;;;;;;;31.52;15.15;;;3.10;99.40;;;;;;4992248;28;20038;-75
2023/12/01 12:44:04;;;;;;;33.38;15.27;;;2.90;99.10;;;;;;4993630;28;20022;-76